Brevator, Minnesota
Current Conditions -  °F | °C
As of 1:55 AM on Wednesday 22 Oct 2014 (Local Time) from KDLH Reporting Station
Clear Clear  
Wind Chill: 36°   Ceiling: Unl
Heat Index: 41°   Visibility: 10mi
Dew Point: 35°   Wind: 8mph
Humidity: 79%   Direction: 160°SSE
Pressure: 30.19"   Gusts: NA
Location:  46.8859°N, 92.4258°W
Report Text: KDLH 220655Z 16007KT 10SM CLR 05/02 A3019 RMK AO2 SLP236 T00500017
Loading
Personal Weather Stations






























Interactive Weather Map
Tropical Storm Tracking
New forecast layout! Learn more

10-Day Weather Forecast

Advertisements
Track Severe Weather on mobile